Terminal Aerodrome Forecast
Issued by NWS Pittsburgh, PA

Current Version | Previous Version | Text Only | Print | Product List | Glossary On
Versions: 1 2 3 4 5 6 7 8 9 10 11 12 13 14 15 16 17 18 19 20 21 22 23 24 25 26 27 28 29
000
FTUS41 KPBZ 180359 AAC
TAFPIT
TAF AMD
KPIT 180359Z 1804/1906 21007KT P6SM -SHRA SCT035 BKN100
     FM180600 20005KT P6SM BKN025
     FM181100 20004KT P6SM VCSH BKN015
     FM181500 23007KT P6SM BKN035
     FM190000 27007KT P6SM SCT045=

USA.gov is the U.S. government's official web portal to all federal, state and local government web resources and services.